Time;durP1;ratioP1;P1;durP2;ratioP2;P2;SDS_P1;SDS_P2;PMS_P1;PMS_P2;Temp;Humidity;BMP_temperature;BMP_pressure;BME280_temperature;BME280_humidity;BME280_pressure;Samples;Min_cycle;Max_cycle;Signal;HPM_P1;HPM_P2
2022/07/05 00:01:28;;;;;;;2.72;2.53;;;20.40;99.90;;;;;;5114143;28;20203;-85
2022/07/05 00:03:56;;;;;;;4.97;2.53;;;20.40;99.90;;;;;;5114409;28;20223;-85
2022/07/05 00:06:25;;;;;;;2.78;2.55;;;20.40;99.90;;;;;;5114440;28;20199;-85
2022/07/05 00:08:53;;;;;;;3.00;2.72;;;20.40;99.90;;;;;;5114420;28;20287;-85
2022/07/05 00:11:21;;;;;;;2.80;2.53;;;20.30;99.90;;;;;;5113740;28;20235;-85
2022/07/05 00:13:50;;;;;;;3.40;3.10;;;20.30;99.90;;;;;;5114275;28;20310;-85
2022/07/05 00:16:19;;;;;;;2.45;2.25;;;20.20;99.90;;;;;;5114249;28;20203;-85
2022/07/05 00:18:48;;;;;;;2.88;2.67;;;20.20;99.90;;;;;;5114420;28;20211;-85
2022/07/05 00:21:16;;;;;;;3.03;2.83;;;20.20;99.90;;;;;;5113983;28;20266;-85
2022/07/05 00:23:46;;;;;;;3.55;2.78;;;20.20;99.90;;;;;;5114306;28;20311;-85
2022/07/05 00:26:14;;;;;;;2.80;2.60;;;20.20;99.90;;;;;;5113825;28;20294;-85
2022/07/05 00:28:42;;;;;;;3.00;2.70;;;20.20;99.90;;;;;;5113935;27;20287;-85
2022/07/05 00:31:10;;;;;;;2.80;2.60;;;20.10;99.90;;;;;;5113781;28;20238;-85
2022/07/05 00:33:40;;;;;;;2.75;2.38;;;20.10;99.90;;;;;;5113936;28;20307;-85
2022/07/05 00:36:09;;;;;;;2.45;2.25;;;20.10;99.90;;;;;;5114311;28;20204;-85
2022/07/05 00:38:38;;;;;;;2.70;2.50;;;20.10;99.90;;;;;;5113751;28;20227;-84
2022/07/05 00:41:06;;;;;;;3.88;2.60;;;20.10;99.90;;;;;;5113397;28;20230;-84
2022/07/05 00:43:34;;;;;;;2.75;2.55;;;20.10;99.90;;;;;;5113880;28;20224;-85
2022/07/05 00:46:03;;;;;;;2.88;2.58;;;20.10;99.90;;;;;;5114049;27;20291;-85
2022/07/05 00:48:31;;;;;;;2.70;2.40;;;20.10;99.90;;;;;;5113986;28;20248;-85
2022/07/05 00:51:01;;;;;;;3.03;2.65;;;20.10;99.90;;;;;;5113296;28;20219;-85
2022/07/05 00:53:29;;;;;;;2.35;2.20;;;20.00;99.90;;;;;;5113326;28;20253;-84
2022/07/05 00:55:58;;;;;;;2.10;2.00;;;20.00;99.90;;;;;;5113576;28;20203;-85
2022/07/05 00:58:26;;;;;;;2.63;2.42;;;19.90;99.90;;;;;;5113366;28;20211;-85
2022/07/05 01:00:54;;;;;;;2.85;2.65;;;19.90;99.90;;;;;;5113312;28;20260;-85
2022/07/05 01:03:23;;;;;;;2.22;1.98;;;19.90;99.90;;;;;;5113590;28;20224;-85
2022/07/05 01:05:52;;;;;;;3.90;3.35;;;19.90;99.90;;;;;;5113371;28;20238;-85
2022/07/05 01:08:23;;;;;;;2.67;2.47;;;20.00;99.90;;;;;;5113342;28;20207;-85
2022/07/05 01:10:53;;;;;;;2.90;2.60;;;19.90;99.90;;;;;;5112614;28;20227;-84
2022/07/05 01:13:21;;;;;;;2.53;2.33;;;19.90;99.90;;;;;;5113230;28;20236;-84
2022/07/05 01:15:50;;;;;;;2.97;2.10;;;19.80;99.90;;;;;;5113608;28;20239;-84
2022/07/05 01:18:20;;;;;;;2.42;2.22;;;19.70;99.90;;;;;;5113178;28;20299;-85
2022/07/05 01:20:50;;;;;;;2.42;2.25;;;19.60;99.90;;;;;;5113003;28;20255;-85
2022/07/05 01:23:20;;;;;;;2.95;2.65;;;19.60;99.90;;;;;;5113455;28;20237;-85
2022/07/05 01:25:49;;;;;;;2.13;2.03;;;19.50;99.90;;;;;;5113321;28;20226;-85
2022/07/05 01:28:17;;;;;;;2.17;2.03;;;19.50;99.90;;;;;;5113394;28;20238;-85
2022/07/05 01:30:46;;;;;;;1.95;1.83;;;19.50;99.90;;;;;;5112886;28;20246;-85
2022/07/05 01:33:14;;;;;;;2.47;2.28;;;19.50;99.90;;;;;;5112918;28;20227;-85
2022/07/05 01:35:43;;;;;;;2.47;2.35;;;19.50;99.90;;;;;;5113186;28;20207;-85
2022/07/05 01:38:12;;;;;;;2.13;1.98;;;19.50;99.90;;;;;;5113208;28;20204;-85
2022/07/05 01:40:42;;;;;;;2.53;2.33;;;19.50;99.90;;;;;;5113005;28;20234;-85
2022/07/05 01:43:10;;;;;;;1.63;1.52;;;19.50;99.90;;;;;;5113319;28;20216;-85
2022/07/05 01:45:42;;;;;;;2.47;2.28;;;19.50;99.90;;;;;;5113241;28;20377;-85
2022/07/05 01:48:12;;;;;;;1.88;1.77;;;19.50;99.90;;;;;;5113173;28;20204;-85
2022/07/05 01:50:45;;;;;;;1.90;1.80;;;19.50;99.90;;;;;;5112491;28;20223;-85
2022/07/05 01:53:19;;;;;;;2.10;2.00;;;19.50;99.90;;;;;;5112676;28;20287;-85
2022/07/05 01:55:49;;;;;;;2.00;1.90;;;19.50;99.90;;;;;;5112993;28;20207;-85
2022/07/05 01:58:17;;;;;;;1.80;1.70;;;19.50;99.90;;;;;;5112930;28;20204;-85
2022/07/05 02:00:46;;;;;;;3.63;2.58;;;19.50;99.90;;;;;;5112702;28;20203;-85
2022/07/05 02:03:16;;;;;;;2.92;2.20;;;19.50;99.90;;;;;;5112658;28;20266;-85
2022/07/05 02:06:06;;;;;;;1.83;1.73;;;19.50;99.90;;;;;;5112546;28;20200;-85
2022/07/05 02:08:34;;;;;;;1.98;1.83;;;19.50;99.90;;;;;;5112839;28;20219;-85
2022/07/05 02:11:04;;;;;;;2.15;1.88;;;19.50;99.90;;;;;;5115054;28;20262;-85
2022/07/05 02:13:32;;;;;;;1.67;1.58;;;19.50;99.90;;;;;;5116352;28;20479;-85
2022/07/05 02:16:00;;;;;;;1.92;1.83;;;19.50;99.90;;;;;;5116649;28;20196;-85
2022/07/05 02:18:28;;;;;;;1.92;1.83;;;19.50;99.90;;;;;;5116874;28;20230;-85
2022/07/05 02:20:57;;;;;;;2.03;1.92;;;19.50;99.90;;;;;;5116590;28;20231;-85
2022/07/05 02:23:25;;;;;;;1.67;1.58;;;19.50;99.90;;;;;;5116689;28;20235;-85
2022/07/05 02:25:53;;;;;;;1.88;1.77;;;19.50;99.90;;;;;;5116323;28;20259;-85
2022/07/05 02:28:23;;;;;;;2.08;1.98;;;19.40;99.90;;;;;;5116426;28;20207;-85
2022/07/05 02:30:51;;;;;;;2.10;2.00;;;19.40;99.90;;;;;;5115849;28;20261;-85
2022/07/05 02:33:20;;;;;;;2.47;2.20;;;19.40;99.90;;;;;;5116044;28;20247;-84
2022/07/05 02:35:48;;;;;;;2.45;2.25;;;19.40;99.90;;;;;;5116166;28;20230;-85
2022/07/05 02:38:16;;;;;;;2.35;2.20;;;19.30;99.90;;;;;;5116405;28;20223;-84
2022/07/05 02:40:45;;;;;;;2.53;2.33;;;19.30;99.90;;;;;;5115755;28;20260;-85
2022/07/05 02:43:13;;;;;;;2.70;2.50;;;19.30;99.90;;;;;;5116139;28;20232;-85
2022/07/05 02:45:43;;;;;;;2.05;1.95;;;19.30;99.90;;;;;;5116468;28;20298;-85
2022/07/05 02:48:11;;;;;;;1.92;1.77;;;19.30;99.90;;;;;;5116371;27;20202;-85
2022/07/05 02:50:39;;;;;;;2.15;2.03;;;19.30;99.90;;;;;;5116069;28;20254;-85
2022/07/05 02:53:08;;;;;;;2.33;2.03;;;19.30;99.90;;;;;;5115940;28;20249;-85
2022/07/05 02:55:36;;;;;;;2.00;1.90;;;19.40;99.90;;;;;;5116158;28;20299;-85
2022/07/05 02:58:04;;;;;;;2.00;1.90;;;19.40;99.90;;;;;;5115930;28;20267;-85
2022/07/05 03:00:33;;;;;;;1.80;1.70;;;19.40;99.90;;;;;;5115949;28;20505;-85
2022/07/05 03:03:03;;;;;;;1.80;1.70;;;19.40;99.90;;;;;;5115869;28;20231;-85
2022/07/05 03:05:31;;;;;;;1.63;1.52;;;19.50;99.90;;;;;;5116075;28;20229;-85
2022/07/05 03:07:59;;;;;;;2.60;2.30;;;19.50;99.90;;;;;;5115568;28;20287;-85
2022/07/05 03:10:27;;;;;;;2.75;2.47;;;19.60;99.90;;;;;;5115129;28;20322;-84
2022/07/05 03:12:56;;;;;;;2.00;1.85;;;19.60;99.90;;;;;;5115377;28;20239;-85
2022/07/05 03:15:24;;;;;;;1.73;1.63;;;19.60;99.90;;;;;;5115601;28;20235;-85
2022/07/05 03:17:53;;;;;;;1.95;1.85;;;19.60;99.90;;;;;;5115650;28;20227;-85
2022/07/05 03:20:23;;;;;;;2.42;2.20;;;19.70;99.90;;;;;;5114837;27;20315;-85
2022/07/05 03:22:51;;;;;;;2.35;2.15;;;19.70;99.90;;;;;;5115234;28;20302;-85
2022/07/05 03:25:19;;;;;;;3.22;2.92;;;19.70;99.90;;;;;;5115142;28;20290;-85
2022/07/05 03:27:48;;;;;;;2.33;2.13;;;19.70;99.90;;;;;;5115265;28;20207;-84
2022/07/05 03:30:16;;;;;;;1.80;1.70;;;19.80;99.90;;;;;;5114824;28;20302;-85
2022/07/05 03:32:44;;;;;;;2.00;1.88;;;19.70;99.90;;;;;;5115165;28;20323;-85
2022/07/05 03:35:13;;;;;;;1.85;1.75;;;19.80;99.90;;;;;;5115510;28;20455;-84
2022/07/05 03:37:42;;;;;;;2.75;2.55;;;19.80;99.90;;;;;;5114989;28;20216;-85
2022/07/05 03:40:11;;;;;;;2.45;2.25;;;19.80;99.90;;;;;;5115060;28;20199;-84
2022/07/05 03:42:39;;;;;;;1.98;1.88;;;19.80;99.90;;;;;;5114973;28;20323;-84
2022/07/05 03:45:09;;;;;;;1.92;1.83;;;19.80;99.90;;;;;;5114884;28;20234;-84
2022/07/05 03:47:37;;;;;;;2.60;2.40;;;19.80;99.90;;;;;;5114943;28;20227;-85
2022/07/05 03:50:06;;;;;;;2.95;2.45;;;19.80;99.90;;;;;;5115064;28;20227;-85
2022/07/05 03:52:35;;;;;;;3.40;3.13;;;19.90;99.90;;;;;;5114421;28;20323;-85
2022/07/05 03:55:05;;;;;;;7.82;2.67;;;19.90;99.90;;;;;;5115010;28;20290;-85
2022/07/05 03:57:33;;;;;;;2.40;2.20;;;20.00;99.90;;;;;;5114709;28;20208;-84
2022/07/05 04:00:02;;;;;;;2.85;2.60;;;20.00;99.90;;;;;;5114531;28;20320;-84
2022/07/05 04:02:30;;;;;;;2.45;2.28;;;20.00;99.90;;;;;;5114125;28;20231;-85
2022/07/05 04:04:58;;;;;;;3.58;2.55;;;20.00;99.90;;;;;;5114391;28;20208;-85
2022/07/05 04:07:27;;;;;;;5.78;2.90;;;20.00;99.90;;;;;;5114332;28;20290;-85
2022/07/05 04:09:55;;;;;;;3.78;2.60;;;20.10;99.90;;;;;;5114403;27;20199;-85
2022/07/05 04:12:25;;;;;;;2.40;2.20;;;20.10;99.90;;;;;;5114001;28;20268;-85
2022/07/05 04:14:53;;;;;;;2.38;2.28;;;20.10;99.90;;;;;;5114259;28;20296;-84
2022/07/05 04:17:21;;;;;;;2.15;1.98;;;20.10;99.90;;;;;;5113892;28;20210;-85
2022/07/05 04:19:49;;;;;;;1.98;1.75;;;20.10;99.90;;;;;;5114406;28;20218;-85
2022/07/05 04:22:18;;;;;;;1.80;1.70;;;20.10;99.90;;;;;;5113805;28;20278;-85
2022/07/05 04:27:33;;;;;;;2.35;1.95;;;20.10;99.90;;;;;;5113867;28;20211;-84
2022/07/05 04:30:01;;;;;;;1.60;1.50;;;20.10;99.90;;;;;;5113977;28;20286;-84
2022/07/05 04:32:30;;;;;;;1.30;1.30;;;20.10;99.90;;;;;;5112584;28;20291;-84
2022/07/05 04:34:58;;;;;;;1.95;1.85;;;20.10;99.90;;;;;;5113997;28;20279;-84
2022/07/05 04:37:26;;;;;;;1.48;1.38;;;20.10;99.90;;;;;;5113627;27;20294;-85
2022/07/05 04:39:54;;;;;;;1.67;1.58;;;20.10;99.90;;;;;;5113963;28;20234;-85
2022/07/05 04:42:23;;;;;;;2.05;1.65;;;20.10;99.90;;;;;;5113600;28;20205;-85
2022/07/05 04:44:53;;;;;;;3.15;2.25;;;20.20;99.90;;;;;;5113945;28;20278;-84
2022/07/05 04:47:21;;;;;;;1.90;1.70;;;20.20;99.90;;;;;;5113673;28;20200;-84
2022/07/05 04:49:49;;;;;;;2.15;1.92;;;20.10;99.90;;;;;;5113691;28;20231;-85
2022/07/05 04:52:17;;;;;;;1.40;1.35;;;20.10;99.90;;;;;;5113416;28;20215;-85
2022/07/05 04:54:45;;;;;;;1.40;1.30;;;20.10;99.90;;;;;;5113772;28;20234;-85
2022/07/05 04:57:14;;;;;;;1.58;1.48;;;20.20;99.90;;;;;;5113800;28;20294;-85
2022/07/05 04:59:42;;;;;;;1.92;1.52;;;20.10;99.90;;;;;;5113444;28;20208;-84
2022/07/05 05:02:12;;;;;;;1.85;1.70;;;20.10;99.90;;;;;;5113639;28;20199;-85
2022/07/05 05:04:41;;;;;;;1.52;1.42;;;20.10;99.90;;;;;;5114030;28;20202;-85
2022/07/05 05:07:09;;;;;;;2.45;1.52;;;20.10;99.90;;;;;;5113612;28;20267;-85
2022/07/05 05:09:38;;;;;;;1.45;1.35;;;20.10;99.90;;;;;;5113272;28;20231;-85
2022/07/05 05:12:06;;;;;;;3.80;1.58;;;20.10;99.90;;;;;;5112794;28;20287;-85
2022/07/05 05:14:35;;;;;;;1.48;1.38;;;20.20;99.90;;;;;;5113388;28;20259;-85
2022/07/05 05:17:03;;;;;;;1.77;1.67;;;20.10;99.90;;;;;;5113711;28;20200;-84
2022/07/05 05:19:33;;;;;;;2.00;1.77;;;20.10;99.90;;;;;;5113548;28;20210;-85
2022/07/05 05:22:01;;;;;;;1.55;1.45;;;20.20;99.90;;;;;;5112988;28;20234;-85
2022/07/05 05:24:30;;;;;;;1.48;1.38;;;20.20;99.90;;;;;;5113007;28;20287;-84
2022/07/05 05:26:58;;;;;;;1.60;1.50;;;20.20;99.90;;;;;;5112958;28;20204;-84
2022/07/05 05:29:26;;;;;;;1.92;1.80;;;20.20;99.90;;;;;;5113120;28;20227;-85
2022/07/05 05:31:55;;;;;;;1.30;1.30;;;20.20;99.90;;;;;;5113232;28;20250;-85
2022/07/05 05:34:23;;;;;;;1.70;1.60;;;20.20;99.90;;;;;;5113465;28;20239;-84
2022/07/05 05:36:53;;;;;;;1.83;1.65;;;20.20;99.90;;;;;;5113274;28;20203;-84
2022/07/05 05:39:21;;;;;;;1.75;1.65;;;20.10;99.90;;;;;;5113201;28;20295;-85
2022/07/05 05:41:50;;;;;;;2.05;1.55;;;20.10;99.90;;;;;;5113238;28;20227;-84
2022/07/05 05:44:18;;;;;;;2.00;1.90;;;20.10;99.90;;;;;;5114509;28;20255;-85
2022/07/05 05:46:47;;;;;;;2.78;1.77;;;20.10;99.90;;;;;;5117486;27;20230;-84
2022/07/05 05:49:15;;;;;;;1.75;1.52;;;20.00;99.90;;;;;;5117123;28;20207;-85
2022/07/05 05:51:43;;;;;;;1.70;1.60;;;20.00;99.90;;;;;;5116699;28;20267;-84
2022/07/05 05:54:13;;;;;;;1.90;1.80;;;20.00;99.90;;;;;;5116997;28;20264;-85
2022/07/05 05:56:41;;;;;;;2.13;1.83;;;20.00;99.90;;;;;;5116946;28;20207;-85
2022/07/05 05:59:10;;;;;;;1.48;1.42;;;20.10;99.90;;;;;;5117022;27;20291;-85
2022/07/05 06:01:38;;;;;;;1.65;1.55;;;20.10;99.90;;;;;;5116827;27;20208;-85
2022/07/05 06:04:06;;;;;;;1.90;1.80;;;20.10;99.90;;;;;;5116767;28;20309;-84
2022/07/05 06:06:41;;;;;;;1.65;1.55;;;20.20;99.90;;;;;;5116944;28;20203;-85
2022/07/05 06:09:09;;;;;;;1.33;1.33;;;20.20;99.90;;;;;;5116703;27;20278;-85
2022/07/05 06:11:39;;;;;;;2.63;2.00;;;20.20;99.90;;;;;;5116436;28;20306;-85
2022/07/05 06:14:07;;;;;;;1.98;1.85;;;20.20;99.90;;;;;;5116793;28;20296;-84
2022/07/05 06:16:35;;;;;;;1.55;1.45;;;20.30;99.90;;;;;;5116610;27;20303;-85
2022/07/05 06:19:04;;;;;;;1.65;1.55;;;20.30;99.90;;;;;;5116787;27;20196;-85
2022/07/05 06:21:32;;;;;;;4.97;1.88;;;20.40;99.90;;;;;;5116289;28;20208;-85
2022/07/05 06:24:00;;;;;;;2.00;1.90;;;20.40;99.90;;;;;;5116599;28;20302;-85
2022/07/05 06:26:28;;;;;;;1.88;1.77;;;20.40;99.90;;;;;;5116369;28;20223;-85
2022/07/05 06:28:58;;;;;;;1.67;1.58;;;20.50;99.90;;;;;;5115995;28;20208;-85
2022/07/05 06:31:26;;;;;;;1.48;1.45;;;20.50;99.90;;;;;;5116187;28;20287;-84
2022/07/05 06:33:55;;;;;;;1.30;1.30;;;20.50;99.90;;;;;;5115868;28;20228;-85
2022/07/05 06:36:23;;;;;;;2.28;2.10;;;20.50;99.90;;;;;;5116248;28;20247;-85
2022/07/05 06:38:51;;;;;;;2.20;2.03;;;20.50;99.90;;;;;;5116105;28;20204;-85
2022/07/05 06:41:20;;;;;;;1.50;1.40;;;20.50;99.90;;;;;;5115859;28;20227;-85
2022/07/05 06:43:48;;;;;;;1.73;1.52;;;20.40;99.90;;;;;;5116402;27;20293;-85
2022/07/05 06:46:18;;;;;;;1.90;1.67;;;20.40;99.90;;;;;;5116363;28;20203;-85
2022/07/05 06:48:46;;;;;;;1.60;1.50;;;20.40;99.90;;;;;;5115991;28;20207;-85
2022/07/05 06:51:21;;;;;;;2.38;1.85;;;20.40;99.90;;;;;;5115849;27;20219;-85
2022/07/05 06:53:49;;;;;;;1.38;1.27;;;20.40;99.90;;;;;;5115453;28;20239;-85
2022/07/05 06:56:38;;;;;;;1.55;1.45;;;20.50;99.90;;;;;;5115365;28;20204;-85
2022/07/05 06:59:26;;;;;;;1.30;1.20;;;20.50;99.90;;;;;;5115339;28;20208;-85
2022/07/05 07:02:16;;;;;;;1.63;1.52;;;20.60;99.90;;;;;;5115437;28;20215;-85
2022/07/05 07:04:52;;;;;;;1.38;1.38;;;20.60;99.90;;;;;;5115599;28;20283;-85
2022/07/05 07:10:25;;;;;;;1.08;1.08;;;20.60;99.90;;;;;;5115325;28;20227;-85
2022/07/05 07:12:56;;;;;;;1.00;1.00;;;20.60;99.90;;;;;;5115310;28;20274;-85
2022/07/05 07:15:25;;;;;;;1.50;1.40;;;20.60;99.90;;;;;;5115664;28;20200;-84
2022/07/05 07:17:54;;;;;;;1.25;1.23;;;20.70;99.90;;;;;;5115301;28;20234;-84
2022/07/05 07:20:23;;;;;;;1.25;1.25;;;20.70;99.90;;;;;;5115280;28;20195;-85
2022/07/05 07:22:51;;;;;;;1.10;1.10;;;20.70;99.90;;;;;;5115341;27;20273;-84
2022/07/05 07:25:20;;;;;;;4.70;1.40;;;20.60;99.90;;;;;;5115301;28;20246;-85
2022/07/05 07:27:52;;;;;;;2.03;1.83;;;20.60;99.90;;;;;;5115303;28;20207;-85
2022/07/05 07:30:22;;;;;;;1.60;1.50;;;20.70;99.90;;;;;;5114860;28;20261;-85
2022/07/05 07:32:50;;;;;;;1.65;1.55;;;20.80;99.90;;;;;;5114903;28;20243;-85
2022/07/05 07:35:20;;;;;;;1.83;1.23;;;21.00;99.90;;;;;;5115562;28;20291;-85
2022/07/05 07:37:49;;;;;;;1.05;1.05;;;21.10;99.90;;;;;;5115400;28;20291;-85
2022/07/05 07:40:17;;;;;;;2.25;1.30;;;21.10;99.90;;;;;;5115052;28;20209;-85
2022/07/05 07:42:46;;;;;;;1.90;1.42;;;21.10;99.90;;;;;;5115080;28;20293;-85
2022/07/05 07:45:14;;;;;;;0.95;0.95;;;21.20;99.90;;;;;;5114885;28;20230;-85
2022/07/05 07:47:42;;;;;;;2.67;1.40;;;21.10;99.90;;;;;;5115175;28;20229;-85
2022/07/05 07:50:11;;;;;;;0.82;0.82;;;21.10;99.90;;;;;;5115103;28;20299;-85
2022/07/05 07:52:40;;;;;;;1.00;1.00;;;21.00;99.90;;;;;;5114858;28;20307;-85
2022/07/05 07:55:09;;;;;;;1.20;1.15;;;21.00;99.90;;;;;;5114795;28;20224;-85
2022/07/05 07:57:38;;;;;;;1.02;1.00;;;21.10;99.90;;;;;;5115050;28;20211;-85
2022/07/05 08:00:07;;;;;;;1.45;1.27;;;21.00;99.90;;;;;;5114411;28;20224;-84
2022/07/05 08:02:35;;;;;;;0.88;0.88;;;20.90;99.90;;;;;;5114860;28;20306;-85
2022/07/05 08:05:04;;;;;;;1.30;1.20;;;20.90;99.90;;;;;;5114524;28;20233;-85
2022/07/05 08:07:33;;;;;;;2.78;1.40;;;20.90;99.90;;;;;;5114599;28;20200;-84
2022/07/05 08:10:03;;;;;;;1.20;1.10;;;21.00;99.90;;;;;;5114405;28;20287;-84
2022/07/05 08:12:31;;;;;;;0.90;0.90;;;21.00;99.90;;;;;;5114097;28;20310;-84
2022/07/05 08:15:00;;;;;;;1.40;1.30;;;21.00;99.90;;;;;;5114026;28;20315;-85
2022/07/05 08:17:28;;;;;;;1.00;1.00;;;21.00;99.90;;;;;;5114543;28;20228;-85
2022/07/05 08:22:42;;;;;;;0.98;0.95;;;21.20;99.90;;;;;;5114142;28;20223;-85
2022/07/05 08:25:13;;;;;;;1.10;1.00;;;21.30;99.90;;;;;;5114158;28;20279;-85
2022/07/05 08:27:42;;;;;;;1.00;1.00;;;21.30;99.90;;;;;;5114039;28;20255;-84
2022/07/05 08:30:11;;;;;;;1.13;1.13;;;21.30;99.90;;;;;;5114077;28;20267;-85
2022/07/05 08:32:41;;;;;;;1.13;1.02;;;21.50;99.90;;;;;;5113731;28;20243;-85
2022/07/05 08:35:09;;;;;;;1.40;1.30;;;21.60;99.90;;;;;;5113579;28;20242;-85
2022/07/05 08:37:38;;;;;;;1.40;1.30;;;21.60;99.90;;;;;;5113717;28;20231;-85
2022/07/05 08:40:09;;;;;;;1.50;1.40;;;21.50;99.90;;;;;;5113974;28;20203;-85
2022/07/05 08:42:39;;;;;;;1.65;1.00;;;21.20;99.90;;;;;;5114118;28;20303;-85
2022/07/05 08:45:13;;;;;;;0.90;0.90;;;21.20;99.90;;;;;;5114208;28;20196;-85
2022/07/05 08:47:43;;;;;;;1.15;1.10;;;21.30;99.90;;;;;;5114117;28;20207;-85
2022/07/05 08:50:14;;;;;;;1.23;1.17;;;21.50;99.90;;;;;;5113829;28;20231;-85
2022/07/05 08:52:42;;;;;;;1.38;1.27;;;21.60;99.90;;;;;;5113918;28;20235;-85
2022/07/05 08:55:12;;;;;;;1.13;1.13;;;21.60;99.90;;;;;;5113004;28;20293;-85
2022/07/05 08:57:42;;;;;;;1.48;1.38;;;21.80;99.90;;;;;;5113910;28;20203;-85
2022/07/05 09:00:12;;;;;;;1.63;1.40;;;21.80;99.90;;;;;;5113328;28;20231;-85
2022/07/05 09:02:40;;;;;;;1.58;1.48;;;21.80;99.90;;;;;;5113487;28;20285;-84
2022/07/05 09:05:12;;;;;;;1.33;1.23;;;21.60;99.90;;;;;;5113734;28;20245;-84
2022/07/05 09:07:45;;;;;;;0.98;0.98;;;21.60;99.90;;;;;;5113399;28;20199;-85
2022/07/05 09:10:13;;;;;;;1.20;1.20;;;21.50;99.90;;;;;;5113018;28;20207;-85
2022/07/05 09:12:43;;;;;;;1.35;1.25;;;21.50;99.90;;;;;;5113584;28;20227;-85
2022/07/05 09:15:12;;;;;;;1.30;1.20;;;21.40;99.90;;;;;;5113195;28;20250;-85
2022/07/05 09:17:44;;;;;;;1.30;1.30;;;21.40;99.90;;;;;;5113360;28;20290;-85
2022/07/05 09:20:15;;;;;;;1.30;1.10;;;21.40;99.90;;;;;;5112484;28;20227;-85
2022/07/05 09:22:48;;;;;;;1.63;1.52;;;21.30;99.90;;;;;;5113141;28;20216;-85
2022/07/05 09:25:22;;;;;;;1.30;1.20;;;21.40;99.90;;;;;;5113672;28;20196;-84
2022/07/05 09:27:55;;;;;;;1.73;1.63;;;21.30;99.90;;;;;;5113430;28;20203;-84
2022/07/05 09:30:30;;;;;;;1.85;1.75;;;21.20;99.90;;;;;;5112957;28;20207;-85
2022/07/05 09:33:06;;;;;;;1.60;1.50;;;21.10;99.90;;;;;;5113036;28;20223;-85
2022/07/05 09:35:35;;;;;;;1.25;1.25;;;21.00;99.90;;;;;;5112972;28;20280;-85
2022/07/05 09:38:04;;;;;;;1.55;1.45;;;21.00;99.90;;;;;;5113306;28;20253;-85
2022/07/05 09:40:33;;;;;;;1.02;1.02;;;21.00;99.90;;;;;;5113055;28;20234;-85
2022/07/05 09:43:17;;;;;;;1.50;1.30;;;20.90;99.90;;;;;;5113053;28;20250;-85
2022/07/05 09:45:56;;;;;;;1.23;1.20;;;20.90;99.90;;;;;;5112990;28;20294;-84
2022/07/05 09:48:24;;;;;;;1.60;1.50;;;20.80;99.90;;;;;;5113138;28;20242;-84
2022/07/05 09:51:07;;;;;;;0.88;0.88;;;20.80;99.90;;;;;;5112745;28;20214;-84
2022/07/05 09:53:57;;;;;;;1.00;1.00;;;20.60;99.90;;;;;;5112774;28;20224;-85
2022/07/05 09:56:30;;;;;;;1.13;1.13;;;20.50;99.90;;;;;;5113058;28;20226;-84
2022/07/05 09:59:19;;;;;;;1.08;0.98;;;20.40;99.90;;;;;;5113143;28;20207;-85
2022/07/05 10:01:49;;;;;;;2.75;1.20;;;20.30;99.90;;;;;;5112982;28;20237;-84
2022/07/05 10:04:18;;;;;;;1.00;1.00;;;20.30;99.90;;;;;;5112704;28;20234;-85
2022/07/05 10:06:47;;;;;;;1.10;1.10;;;20.20;99.90;;;;;;5113262;28;20211;-85
2022/07/05 10:09:15;;;;;;;1.17;1.17;;;20.10;99.90;;;;;;5112820;28;20199;-85
2022/07/05 10:11:45;;;;;;;1.33;1.25;;;20.00;99.90;;;;;;5112436;28;20227;-85
2022/07/05 10:14:19;;;;;;;1.13;1.13;;;19.90;99.90;;;;;;5112986;28;20249;-85
2022/07/05 10:16:53;;;;;;;2.55;1.67;;;19.90;99.90;;;;;;5112824;28;20200;-85
2022/07/05 10:19:22;;;;;;;1.98;1.83;;;19.90;99.90;;;;;;5113236;28;20225;-85
2022/07/05 10:21:51;;;;;;;1.23;1.17;;;20.00;99.90;;;;;;5112906;28;20200;-85
2022/07/05 10:24:40;;;;;;;1.88;1.75;;;19.90;99.90;;;;;;5112249;28;20196;-85
2022/07/05 10:27:09;;;;;;;1.38;1.27;;;19.80;99.90;;;;;;5112979;28;20199;-85
2022/07/05 10:29:41;;;;;;;1.67;1.58;;;19.80;99.90;;;;;;5112564;28;20231;-85
2022/07/05 10:32:12;;;;;;;1.48;1.38;;;19.70;99.90;;;;;;5115008;28;20207;-85
2022/07/05 10:34:42;;;;;;;2.22;1.88;;;19.60;99.90;;;;;;5116548;28;20220;-85
2022/07/05 10:37:28;;;;;;;1.50;1.40;;;19.50;99.90;;;;;;5115880;28;20227;-85
2022/07/05 10:39:59;;;;;;;1.75;1.65;;;19.30;99.90;;;;;;5116241;28;20208;-85
2022/07/05 10:42:32;;;;;;;1.85;1.75;;;19.30;99.90;;;;;;5116022;27;20223;-85
2022/07/05 10:45:03;;;;;;;2.08;1.88;;;19.20;99.90;;;;;;5116612;28;20200;-84
2022/07/05 10:47:32;;;;;;;1.90;1.80;;;19.20;99.90;;;;;;5116169;28;20204;-84
2022/07/05 10:50:02;;;;;;;1.83;1.73;;;19.20;99.90;;;;;;5115971;28;20214;-84
2022/07/05 10:52:31;;;;;;;1.70;1.60;;;19.20;99.90;;;;;;5115987;28;20232;-84
2022/07/05 10:55:18;;;;;;;1.95;1.80;;;19.30;99.90;;;;;;5115833;28;20224;-84
2022/07/05 10:58:21;;;;;;;1.67;1.58;;;19.40;99.90;;;;;;5116103;28;20206;-85
2022/07/05 11:01:39;;;;;;;1.63;1.52;;;19.40;99.90;;;;;;5115557;28;20290;-85
2022/07/05 11:04:29;;;;;;;2.17;2.00;;;19.50;99.90;;;;;;5115602;28;20268;-84
2022/07/05 11:06:58;;;;;;;2.13;1.92;;;19.50;99.90;;;;;;5115908;28;20210;-84
2022/07/05 11:09:28;;;;;;;2.00;1.90;;;19.50;99.90;;;;;;5115541;28;20282;-84
2022/07/05 11:12:18;;;;;;;2.60;1.83;;;19.50;99.90;;;;;;5115363;28;20212;-84
2022/07/05 11:15:08;;;;;;;1.95;1.85;;;19.60;99.90;;;;;;5115602;28;20219;-84
2022/07/05 11:17:38;;;;;;;4.38;2.10;;;19.70;99.90;;;;;;5115705;28;20207;-84
2022/07/05 11:20:32;;;;;;;1.80;1.70;;;19.70;99.90;;;;;;5115000;28;20207;-84
2022/07/05 11:23:05;;;;;;;2.40;2.20;;;19.70;99.90;;;;;;5115120;28;20254;-84
2022/07/05 11:25:35;;;;;;;1.65;1.55;;;19.70;99.90;;;;;;5115445;28;20279;-84
2022/07/05 11:28:12;;;;;;;2.47;2.28;;;19.70;99.90;;;;;;5115137;28;20203;-85
2022/07/05 11:31:04;;;;;;;2.33;2.20;;;19.80;99.90;;;;;;5114912;28;20211;-85
2022/07/05 11:33:44;;;;;;;1.70;1.60;;;19.70;99.90;;;;;;5100551;28;20253;-84
2022/07/05 11:36:25;;;;;;;1.63;1.52;;;19.80;99.90;;;;;;5115043;28;20219;-85
2022/07/05 11:39:15;;;;;;;2.05;1.95;;;19.80;99.90;;;;;;5114835;28;20204;-84
2022/07/05 11:41:45;;;;;;;1.95;1.80;;;19.90;99.90;;;;;;5114704;28;20204;-84
2022/07/05 11:44:14;;;;;;;2.00;1.90;;;20.00;99.90;;;;;;5114851;28;20223;-84
2022/07/05 11:46:44;;;;;;;2.30;2.08;;;20.00;99.90;;;;;;5114672;28;20204;-84
2022/07/05 11:49:24;;;;;;;2.40;2.20;;;20.00;99.90;;;;;;5114811;28;20279;-84
2022/07/05 11:51:57;;;;;;;2.55;2.35;;;20.00;99.90;;;;;;5114868;28;20196;-84
2022/07/05 11:54:26;;;;;;;2.10;2.00;;;20.10;99.90;;;;;;5115155;28;20220;-84
2022/07/05 11:56:55;;;;;;;1.95;1.85;;;20.20;99.90;;;;;;5114553;28;20223;-84
2022/07/05 11:59:25;;;;;;;2.05;1.92;;;20.30;99.90;;;;;;5114686;28;20215;-84
2022/07/05 12:01:55;;;;;;;3.53;2.22;;;20.40;99.90;;;;;;5114200;28;20234;-85
2022/07/05 12:04:26;;;;;;;2.20;2.00;;;20.60;99.90;;;;;;5114364;28;20306;-84
2022/07/05 12:06:56;;;;;;;2.55;2.30;;;20.70;99.90;;;;;;5114498;28;20203;-84
2022/07/05 12:09:26;;;;;;;2.15;2.05;;;20.80;99.90;;;;;;5114597;28;20215;-84
2022/07/05 12:14:49;;;;;;;2.80;2.20;;;21.10;99.90;;;;;;5114288;28;20272;-84
2022/07/05 12:17:19;;;;;;;3.78;1.90;;;21.50;99.90;;;;;;5114389;28;20207;-84
2022/07/05 12:19:55;;;;;;;1.85;1.75;;;21.70;99.90;;;;;;5114355;28;20227;-84
2022/07/05 12:22:31;;;;;;;2.28;2.08;;;21.70;99.90;;;;;;5114284;28;20211;-84
2022/07/05 12:25:00;;;;;;;2.08;1.98;;;21.70;99.90;;;;;;5114005;28;20218;-85
2022/07/05 12:27:30;;;;;;;1.83;1.73;;;21.60;99.90;;;;;;5114000;28;20200;-84
2022/07/05 12:29:59;;;;;;;1.80;1.70;;;21.60;99.90;;;;;;5114212;28;20210;-84
2022/07/05 12:32:28;;;;;;;1.95;1.85;;;21.70;99.90;;;;;;5114186;28;20315;-84
2022/07/05 12:34:58;;;;;;;2.38;2.17;;;21.80;99.90;;;;;;5114136;28;20203;-85
2022/07/05 12:37:33;;;;;;;2.50;2.30;;;21.90;99.90;;;;;;5113841;28;20252;-85
2022/07/05 12:40:05;;;;;;;2.33;2.17;;;22.20;99.90;;;;;;5114152;28;20216;-84
2022/07/05 12:42:34;;;;;;;2.00;1.90;;;22.20;99.90;;;;;;5113842;28;20258;-84
2022/07/05 12:45:13;;;;;;;2.33;2.13;;;22.10;99.90;;;;;;5113875;28;20239;-84
2022/07/05 12:47:53;;;;;;;2.25;2.15;;;21.90;99.90;;;;;;5113759;28;20222;-84
2022/07/05 12:50:25;;;;;;;2.35;2.13;;;21.70;99.90;;;;;;5113716;28;20210;-84
2022/07/05 12:58:47;;;;;;;1.85;1.75;;;22.10;99.90;;;;;;5113775;28;20290;-84
2022/07/05 13:01:27;;;;;;;2.03;1.85;;;22.30;99.90;;;;;;5113540;28;20204;-84
2022/07/05 13:04:05;;;;;;;1.70;1.60;;;22.50;99.90;;;;;;5114146;28;20224;-85
2022/07/05 13:06:51;;;;;;;2.42;2.22;;;22.70;99.90;;;;;;5113580;28;20269;-84
2022/07/05 13:09:35;;;;;;;1.73;1.67;;;22.80;99.90;;;;;;5113754;28;20203;-85
2022/07/05 13:12:11;;;;;;;1.77;1.67;;;23.10;99.90;;;;;;5113266;28;20199;-85
2022/07/05 13:14:42;;;;;;;2.50;2.30;;;23.30;99.90;;;;;;5112156;28;20245;-85
2022/07/05 13:17:12;;;;;;;2.40;2.25;;;23.30;99.90;;;;;;5113009;28;20311;-85
2022/07/05 13:19:42;;;;;;;3.13;2.10;;;23.40;99.90;;;;;;5113431;28;20295;-85
2022/07/05 13:22:11;;;;;;;1.80;1.70;;;23.50;99.90;;;;;;5112914;28;20286;-84
2022/07/05 13:24:40;;;;;;;2.30;2.10;;;23.50;99.90;;;;;;5113321;28;20253;-85